Startpagina
METAR-TAF:

METAR-TAF

Vliegvelden :

Internationale luchthaven La Aurora

Guatemala-stad, Guatemala

breedte: 14-35N, lengte: 090-31W, hoogte: 1489 m

Actueel weer

Dit bericht is 59 minuten geleden gemaakt, om 01:00 UTC
Wind 12 kt uit het noorden
Temperatuur 18°C
Vochtigheid 77%
Druk 1026 hPa
Zicht 10 km of meer
Weinig wolken op 1600 ft

METAR: MGGT 180100Z 36012KT 9999 FEW016 18/14 Q1026 A3030

Tijdstip: 19:59 (01:59 UTC)

Verwachting

Verwachting geldig van 18 om 00 UTC tot 18 om 24 UTC
Wind 16 kt uit het noorden
Zicht 10 km of meer
Weinig wolken op 1400 ft
Wijzigt naar
van 18 om 15 UTC tot 18 om 17 UTC
Wind 16 kt uit het noordnoordoosten
Weinig wolken op 1800 ft
Tijdelijke
van 18 om 20 UTC tot 18 om 24 UTC
Verspreide wolken op 2000 ft

TAF: MGGT 1800/1824 36016KT 9999 FEW014 TX24/1820Z TN14/1812Z BECMG 1815/1817 02016KT FEW018 TEMPO 1820/1824 SCT020

Waarnemingen en weersverwachtingen van meer dan 4000 vliegvelden (METAR en TAF).

De beschikbare stations zijn de gele en rode punten op de kaart.

Ga met uw muis naar het station om de naam te zien.

Klik dan om waarnemingen en weersverwachtingen te zien.

kaart wijzigen: klik op de groene knoppen met een zwart kruis om in te zoomen, op de groene knop met een streepje om uit te zoomen of op de groene pijlen voor aangrenzende kaarten.


METAR-TAF: